Time;durP1;ratioP1;P1;durP2;ratioP2;P2;SDS_P1;SDS_P2;PMS_P1;PMS_P2;Temp;Humidity;BMP_temperature;BMP_pressure;BME280_temperature;BME280_humidity;BME280_pressure;Samples;Min_cycle;Max_cycle;Signal;HPM_P1;HPM_P2
2023/03/08 00:00:06;;;;;;;14.63;8.43;;;;;;;-5.18;79.33;98204.97;7346816;19;20162;-67
2023/03/08 00:02:35;;;;;;;16.00;9.70;;;;;;;-5.23;79.27;98205.13;7346596;19;20010;-67
2023/03/08 00:05:00;;;;;;;14.82;7.55;;;;;;;-5.24;79.40;98207.78;7346945;19;20021;-68
2023/03/08 00:07:25;;;;;;;15.23;7.97;;;;;;;-5.28;79.25;98204.41;7346983;19;20107;-68
2023/03/08 00:09:49;;;;;;;15.93;8.07;;;;;;;-5.30;79.23;98207.94;7345852;19;20521;-66
2023/03/08 00:12:18;;;;;;;17.73;8.90;;;;;;;-5.35;79.07;98215.06;7343705;19;20019;-67
2023/03/08 00:14:42;;;;;;;14.60;7.78;;;;;;;-5.44;79.13;98202.34;7344906;19;20046;-67
2023/03/08 00:17:07;;;;;;;13.80;7.38;;;;;;;-5.43;78.99;98212.69;7344186;19;20015;-67
2023/03/08 00:19:31;;;;;;;14.82;8.30;;;;;;;-5.51;78.78;98206.88;7345685;19;20015;-67
2023/03/08 00:21:56;;;;;;;20.45;8.85;;;;;;;-5.54;78.92;98213.03;7344026;19;20022;-67
2023/03/08 00:24:21;;;;;;;16.05;9.30;;;;;;;-5.66;79.20;98213.38;7344909;19;20026;-65
2023/03/08 00:26:46;;;;;;;23.48;8.82;;;;;;;-5.59;78.74;98212.28;7345698;19;20102;-66
2023/03/08 00:29:10;;;;;;;17.23;8.73;;;;;;;-5.70;78.83;98209.16;7343802;19;20015;-65
2023/03/08 00:31:35;;;;;;;15.10;8.82;;;;;;;-5.73;78.87;98219.63;7345688;19;20023;-65
2023/03/08 00:34:00;;;;;;;12.52;6.82;;;;;;;-5.74;79.12;98217.94;7344245;19;20031;-64
2023/03/08 00:36:24;;;;;;;15.05;7.85;;;;;;;-5.77;79.05;98218.03;7341213;19;20015;-64
2023/03/08 00:38:50;;;;;;;11.98;7.63;;;;;;;-5.79;79.41;98227.63;7346195;19;20352;-64
2023/03/08 00:41:15;;;;;;;21.52;10.13;;;;;;;-5.83;79.57;98225.13;7344150;19;20497;-64
2023/03/08 00:43:41;;;;;;;14.98;8.60;;;;;;;-5.86;79.66;98224.31;7346591;19;20447;-67
2023/03/08 00:46:05;;;;;;;17.10;9.35;;;;;;;-5.89;80.10;98223.63;7346434;19;20023;-68
2023/03/08 00:48:30;;;;;;;18.58;9.95;;;;;;;-5.89;79.91;98228.81;7345309;19;20029;-66
2023/03/08 00:50:55;;;;;;;14.73;9.10;;;;;;;-5.88;79.75;98218.34;7344576;19;20028;-66
2023/03/08 00:53:20;;;;;;;18.65;9.38;;;;;;;-5.92;79.88;98223.69;7345054;19;20010;-65
2023/03/08 00:55:55;;;;;;;15.07;8.85;;;;;;;-5.94;79.94;98215.94;7343418;19;20011;-65
2023/03/08 00:58:22;;;;;;;14.93;8.15;;;;;;;-6.00;80.12;98218.72;7344738;19;20026;-66
2023/03/08 01:00:47;;;;;;;17.40;9.02;;;;;;;-6.02;80.39;98209.28;7344239;19;20014;-66
2023/03/08 01:03:12;;;;;;;15.35;8.90;;;;;;;-6.00;80.28;98215.28;7346116;19;20101;-66
2023/03/08 01:05:41;;;;;;;12.88;8.23;;;;;;;-5.97;80.57;98215.19;7343164;19;20031;-65
2023/03/08 01:08:05;;;;;;;15.43;8.13;;;;;;;-5.98;80.46;98213.50;7342481;19;20787;-66
2023/03/08 01:10:30;;;;;;;17.50;9.60;;;;;;;-5.98;80.53;98219.50;7343051;19;20472;-66
2023/03/08 01:12:54;;;;;;;18.63;10.82;;;;;;;-5.97;80.70;98207.41;7342408;19;20019;-67
2023/03/08 01:15:19;;;;;;;20.45;10.82;;;;;;;-5.85;80.06;98215.66;7342813;19;20469;-67
2023/03/08 01:17:43;;;;;;;15.50;9.90;;;;;;;-5.91;80.16;98207.22;7344894;19;20323;-67
2023/03/08 01:20:09;;;;;;;19.65;9.63;;;;;;;-5.92;80.20;98202.94;7348460;19;20031;-66
2023/03/08 01:22:33;;;;;;;23.17;9.25;;;;;;;-5.92;79.79;98201.19;7353201;19;20082;-66
2023/03/08 01:24:58;;;;;;;24.17;11.15;;;;;;;-5.97;79.88;98199.59;7348249;19;20018;-67
2023/03/08 01:27:27;;;;;;;19.25;10.98;;;;;;;-6.03;79.97;98210.19;7340185;19;20092;-67
2023/03/08 01:29:52;;;;;;;15.05;10.10;;;;;;;-6.10;80.37;98187.91;7340392;19;20019;-65
2023/03/08 01:32:16;;;;;;;20.70;12.35;;;;;;;-6.05;80.21;98196.38;7344638;19;20021;-68
2023/03/08 01:34:41;;;;;;;24.17;14.65;;;;;;;-6.12;80.54;98189.69;7343723;19;20017;-67
2023/03/08 01:37:05;;;;;;;14.15;9.07;;;;;;;-6.11;80.91;98205.22;7343267;19;20018;-66
2023/03/08 01:39:30;;;;;;;20.95;10.98;;;;;;;-6.14;80.77;98207.03;7343960;19;20010;-69
2023/03/08 01:41:55;;;;;;;21.42;11.75;;;;;;;-6.23;80.59;98197.78;7341241;19;20045;-70
2023/03/08 01:44:23;;;;;;;17.25;10.45;;;;;;;-6.33;80.45;98192.00;7343422;19;20079;-74
2023/03/08 01:46:50;;;;;;;16.50;10.13;;;;;;;-6.28;80.03;98187.50;7341337;19;20026;-69
2023/03/08 01:49:30;;;;;;;15.25;9.80;;;;;;;-6.34;79.94;98187.69;7343985;19;20030;-74
2023/03/08 01:52:27;;;;;;;19.48;9.65;;;;;;;-6.37;80.19;98192.94;7342820;19;20037;-75
2023/03/08 01:54:55;;;;;;;23.60;11.43;;;;;;;-6.41;80.05;98187.88;7340520;19;20033;-71
2023/03/08 01:57:31;;;;;;;15.88;8.85;;;;;;;-6.36;80.35;98199.84;7342427;19;20074;-68
2023/03/08 02:00:03;;;;;;;19.45;9.88;;;;;;;-6.32;80.86;98213.59;7341138;19;20021;-68
2023/03/08 02:02:51;;;;;;;20.45;8.55;;;;;;;-6.21;80.76;98208.09;7342818;19;20074;-67
2023/03/08 02:05:17;;;;;;;17.48;6.75;;;;;;;-6.17;80.26;98202.78;7342631;19;20078;-69
2023/03/08 02:07:44;;;;;;;19.67;9.55;;;;;;;-6.16;80.02;98211.41;7341180;19;20010;-67
2023/03/08 02:10:10;;;;;;;22.92;10.38;;;;;;;-6.24;80.32;98217.66;7341971;19;20135;-70
2023/03/08 02:12:36;;;;;;;22.20;10.15;;;;;;;-6.24;80.78;98207.28;7341594;19;20439;-70
2023/03/08 02:15:04;;;;;;;19.13;9.43;;;;;;;-6.18;80.45;98208.00;7341277;19;20011;-68
2023/03/08 02:17:29;;;;;;;29.58;10.80;;;;;;;-6.29;80.75;98206.56;7351721;19;20059;-67
2023/03/08 02:20:10;;;;;;;41.47;15.15;;;;;;;-6.30;80.77;98210.03;7349774;19;20007;-69
2023/03/08 02:22:42;;;;;;;18.33;9.95;;;;;;;-6.28;81.05;98207.41;7347684;19;20017;-69
2023/03/08 02:25:32;;;;;;;18.85;10.57;;;;;;;-6.24;80.96;98202.09;7348629;19;20053;-68
2023/03/08 02:27:58;;;;;;;18.40;9.77;;;;;;;-6.24;81.21;98201.25;7348617;19;20028;-68
2023/03/08 02:30:25;;;;;;;19.85;8.88;;;;;;;-6.21;81.10;98198.59;7350658;19;20018;-67
2023/03/08 02:32:49;;;;;;;31.48;13.02;;;;;;;-6.26;81.09;98210.81;7349852;19;20015;-67
2023/03/08 02:35:14;;;;;;;25.40;10.73;;;;;;;-6.27;80.79;98209.09;7349514;19;20014;-67
2023/03/08 02:37:39;;;;;;;30.58;14.15;;;;;;;-6.38;80.74;98199.03;7349848;19;20102;-69
2023/03/08 02:40:04;;;;;;;24.02;11.25;;;;;;;-6.34;80.96;98211.03;7352393;19;20017;-76
2023/03/08 02:42:28;;;;;;;24.60;13.45;;;;;;;-6.42;81.00;98205.19;7350179;19;20023;-68
2023/03/08 02:44:53;;;;;;;27.83;11.10;;;;;;;-6.37;81.05;98215.44;7348525;19;20492;-66
2023/03/08 02:47:18;;;;;;;31.77;11.93;;;;;;;-6.34;80.99;98205.84;7349209;19;20046;-77
2023/03/08 02:49:44;;;;;;;29.67;11.52;;;;;;;-6.33;81.15;98209.28;7352047;19;20015;-76
2023/03/08 02:52:09;;;;;;;30.65;15.20;;;;;;;-6.42;81.41;98214.69;7353485;19;20045;-79
2023/03/08 02:54:33;;;;;;;32.33;10.82;;;;;;;-6.32;81.22;98211.81;7351638;19;20011;-73
2023/03/08 02:56:59;;;;;;;42.08;17.48;;;;;;;-6.41;81.31;98225.03;7348327;19;20025;-71
2023/03/08 02:59:23;;;;;;;24.77;11.85;;;;;;;-6.40;80.97;98216.34;7351680;19;20008;-75
2023/03/08 03:01:48;;;;;;;25.83;11.52;;;;;;;-6.43;80.99;98220.78;7351033;19;20014;-77
2023/03/08 03:04:13;;;;;;;24.33;11.48;;;;;;;-6.44;81.08;98222.53;7353212;19;20014;-69
2023/03/08 03:06:38;;;;;;;29.95;14.70;;;;;;;-6.47;81.16;98225.19;7352684;19;20029;-67
2023/03/08 03:09:07;;;;;;;18.48;9.15;;;;;;;-6.45;80.74;98218.25;7348495;19;20082;-66
2023/03/08 03:11:32;;;;;;;28.20;13.38;;;;;;;-6.59;80.29;98215.16;7350191;19;20101;-69
2023/03/08 03:13:58;;;;;;;34.33;14.23;;;;;;;-6.90;80.81;98222.00;7347037;19;20022;-72
2023/03/08 03:16:27;;;;;;;29.48;15.27;;;;;;;-6.89;80.49;98221.13;7346312;19;20018;-70
2023/03/08 03:18:54;;;;;;;21.25;11.77;;;;;;;-6.93;80.59;98219.47;7348234;19;20016;-70
2023/03/08 03:21:18;;;;;;;22.33;9.48;;;;;;;-6.94;80.22;98226.41;7348245;19;20018;-62
2023/03/08 03:23:43;;;;;;;24.60;11.85;;;;;;;-7.07;80.35;98225.84;7348507;19;20106;-63
2023/03/08 03:26:15;;;;;;;24.92;12.35;;;;;;;-7.14;80.40;98221.72;7345696;19;20023;-64
2023/03/08 03:28:40;;;;;;;46.63;19.48;;;;;;;-7.26;80.51;98224.56;7350140;19;20036;-64
2023/03/08 03:31:09;;;;;;;26.65;12.93;;;;;;;-7.30;80.57;98225.53;7348702;19;20098;-65
2023/03/08 03:33:34;;;;;;;19.48;9.30;;;;;;;-7.25;79.62;98228.88;7346795;19;20011;-70
2023/03/08 03:36:01;;;;;;;45.03;19.70;;;;;;;-7.49;79.65;98214.75;7349054;19;20078;-66
2023/03/08 03:38:26;;;;;;;35.20;15.85;;;;;;;-7.67;80.96;98224.66;7347893;19;20011;-68
2023/03/08 03:41:02;;;;;;;60.13;23.20;;;;;;;-7.99;81.82;98222.72;7348121;19;20568;-68
2023/03/08 03:43:28;;;;;;;39.55;18.92;;;;;;;-7.83;81.26;98234.47;7348363;19;20042;-70
2023/03/08 03:46:00;;;;;;;31.67;13.40;;;;;;;-7.86;81.53;98234.53;7347947;19;20673;-68
2023/03/08 03:48:26;;;;;;;24.55;11.70;;;;;;;-7.95;81.98;98233.00;7346025;19;20510;-70
2023/03/08 03:50:59;;;;;;;43.30;15.35;;;;;;;-7.97;81.85;98220.97;7348112;19;20766;-69
2023/03/08 03:53:24;;;;;;;22.92;10.90;;;;;;;-7.99;82.09;98226.16;7346469;19;20010;-68
2023/03/08 03:55:50;;;;;;;27.55;12.20;;;;;;;-7.93;82.34;98226.06;7343313;19;20465;-67
2023/03/08 03:58:15;;;;;;;37.15;13.05;;;;;;;-7.92;82.62;98234.66;7346998;19;20354;-71
2023/03/08 04:00:40;;;;;;;23.02;10.77;;;;;;;-7.67;81.75;98241.00;7345760;19;20023;-73
2023/03/08 04:03:25;;;;;;;27.05;12.70;;;;;;;-7.65;81.35;98228.03;7346610;19;20018;-72
2023/03/08 04:05:50;;;;;;;30.60;12.95;;;;;;;-7.73;81.96;98230.81;7346757;19;20027;-70
2023/03/08 04:08:15;;;;;;;23.45;9.80;;;;;;;-7.69;81.82;98227.28;7346661;19;20007;-71
2023/03/08 04:10:40;;;;;;;31.30;12.30;;;;;;;-7.66;81.90;98241.88;7344861;19;20018;-71
2023/03/08 04:13:06;;;;;;;30.88;12.20;;;;;;;-7.73;81.96;98246.31;7345908;19;20006;-71
2023/03/08 04:15:31;;;;;;;24.95;11.70;;;;;;;-7.81;82.55;98243.91;7344505;19;20010;-72
2023/03/08 04:17:58;;;;;;;28.42;12.95;;;;;;;-7.73;82.30;98242.00;7348073;19;20025;-72
2023/03/08 04:20:26;;;;;;;32.67;10.02;;;;;;;-7.65;82.72;98243.56;7347536;19;20025;-68
2023/03/08 04:22:55;;;;;;;28.08;12.00;;;;;;;-7.60;82.87;98236.56;7349853;19;20045;-69
2023/03/08 04:25:26;;;;;;;19.10;8.30;;;;;;;-7.51;82.55;98239.81;7345715;19;20050;-69
2023/03/08 04:27:56;;;;;;;23.67;9.25;;;;;;;-7.38;81.60;98249.00;7346798;19;20453;-69
2023/03/08 04:30:20;;;;;;;27.67;11.48;;;;;;;-7.48;81.69;98267.38;7345190;19;20299;-68
2023/03/08 04:32:45;;;;;;;26.10;8.85;;;;;;;-7.41;80.90;98254.25;7345535;19;20089;-68
2023/03/08 04:35:11;;;;;;;25.23;11.20;;;;;;;-7.44;80.76;98266.38;7344104;19;20027;-67
2023/03/08 04:37:38;;;;;;;34.90;14.15;;;;;;;-7.38;80.25;98263.69;7348092;19;20019;-70
2023/03/08 04:40:08;;;;;;;26.52;9.88;;;;;;;-7.61;81.21;98273.69;7358969;19;20011;-72
2023/03/08 04:42:39;;;;;;;32.35;13.10;;;;;;;-7.60;81.17;98276.25;7351891;19;20094;-68
2023/03/08 04:45:05;;;;;;;38.38;12.50;;;;;;;-7.61;81.62;98276.25;7344575;19;20465;-68
2023/03/08 04:47:31;;;;;;;51.95;17.70;;;;;;;-7.71;82.48;98275.63;7342802;19;20029;-69
2023/03/08 04:49:56;;;;;;;18.50;7.57;;;;;;;-7.35;81.53;98273.97;7344038;19;20018;-68
2023/03/08 04:52:21;;;;;;;43.80;13.85;;;;;;;-7.37;80.97;98265.38;7345812;19;20018;-67
2023/03/08 04:54:46;;;;;;;21.92;9.80;;;;;;;-7.38;81.21;98286.97;7343441;19;20018;-68
2023/03/08 04:57:18;;;;;;;12.85;6.80;;;;;;;-7.25;80.58;98272.88;7343145;19;20010;-67
2023/03/08 04:59:44;;;;;;;59.60;19.40;;;;;;;-7.51;81.14;98285.53;7344446;19;20019;-68
2023/03/08 05:02:09;;;;;;;31.00;13.98;;;;;;;-7.49;81.27;98281.19;7341907;19;20021;-69
2023/03/08 05:04:35;;;;;;;27.45;11.07;;;;;;;-7.52;81.54;98273.47;7343431;19;20018;-69
2023/03/08 05:07:00;;;;;;;34.92;13.63;;;;;;;-7.56;82.34;98275.28;7344673;19;20014;-68
2023/03/08 05:09:27;;;;;;;51.95;20.10;;;;;;;-7.58;83.74;98290.00;7343627;19;20015;-69
2023/03/08 05:11:52;;;;;;;41.38;17.33;;;;;;;-7.46;84.15;98268.19;7344751;19;20025;-67
2023/03/08 05:14:17;;;;;;;61.15;19.38;;;;;;;-7.23;83.88;98276.31;7341784;19;20037;-69
2023/03/08 05:16:41;;;;;;;43.28;16.27;;;;;;;-7.08;83.13;98268.16;7344212;19;20006;-69
2023/03/08 05:19:07;;;;;;;54.28;20.67;;;;;;;-7.13;83.61;98264.84;7342978;19;20055;-67
2023/03/08 05:21:37;;;;;;;43.97;18.23;;;;;;;-7.09;84.24;98263.88;7344533;19;20525;-69
2023/03/08 05:24:02;;;;;;;40.17;14.88;;;;;;;-7.03;84.68;98268.91;7344998;19;20649;-69
2023/03/08 05:26:30;;;;;;;35.17;15.00;;;;;;;-6.90;84.71;98250.50;7344242;19;20142;-69
2023/03/08 05:28:56;;;;;;;54.90;22.42;;;;;;;-6.89;85.02;98253.06;7343341;19;20327;-71
2023/03/08 05:31:24;;;;;;;38.97;17.73;;;;;;;-6.77;85.37;98254.50;7341263;19;20030;-72
2023/03/08 05:33:52;;;;;;;49.22;20.80;;;;;;;-6.61;85.49;98242.84;7341670;19;20011;-69
2023/03/08 05:36:24;;;;;;;15.88;6.20;;;;;;;-6.38;85.11;98250.88;7342482;19;20070;-72
2023/03/08 05:38:55;;;;;;;31.77;13.02;;;;;;;-6.22;84.36;98258.28;7344454;19;20426;-70
2023/03/08 05:41:24;;;;;;;32.17;14.20;;;;;;;-6.20;84.84;98251.28;7343289;19;20022;-70
2023/03/08 05:43:51;;;;;;;11.38;5.45;;;;;;;-5.93;84.16;98250.53;7343108;19;20014;-69
2023/03/08 05:46:17;;;;;;;34.75;15.40;;;;;;;-6.05;84.20;98258.66;7342595;19;20022;-70
2023/03/08 05:48:43;;;;;;;43.20;19.90;;;;;;;-6.00;84.30;98251.59;7346476;19;20037;-69
2023/03/08 05:51:11;;;;;;;19.77;9.65;;;;;;;-5.73;84.22;98257.72;7342451;19;20011;-70
2023/03/08 05:53:36;;;;;;;40.90;17.65;;;;;;;-5.72;83.81;98252.47;7345291;19;20019;-71
2023/03/08 05:56:17;;;;;;;18.10;8.98;;;;;;;-5.51;83.56;98257.03;7343969;19;20027;-70
2023/03/08 05:58:50;;;;;;;29.02;13.25;;;;;;;-5.43;82.94;98253.41;7344788;19;20011;-70
2023/03/08 06:01:24;;;;;;;28.67;11.70;;;;;;;-5.39;83.16;98260.19;7342731;19;20028;-70
2023/03/08 06:03:55;;;;;;;31.25;14.82;;;;;;;-5.35;83.33;98254.84;7343755;19;20025;-71
2023/03/08 06:06:24;;;;;;;36.22;16.98;;;;;;;-5.26;83.18;98256.31;7343741;19;20350;-68
2023/03/08 06:08:49;;;;;;;31.15;14.60;;;;;;;-5.14;83.02;98256.78;7342753;19;20015;-68
2023/03/08 06:11:14;;;;;;;25.83;13.32;;;;;;;-5.00;82.73;98248.56;7343710;19;20042;-70
2023/03/08 06:13:41;;;;;;;19.80;8.85;;;;;;;-4.87;82.34;98249.91;7340277;19;20018;-71
2023/03/08 06:16:07;;;;;;;10.68;6.13;;;;;;;-4.74;82.18;98257.31;7341093;19;20022;-69
2023/03/08 06:18:34;;;;;;;20.38;7.47;;;;;;;-4.45;80.87;98238.97;7340319;19;20023;-70
2023/03/08 06:21:02;;;;;;;19.88;10.95;;;;;;;-4.78;80.26;98234.00;7342570;19;20015;-68
2023/03/08 06:23:31;;;;;;;10.48;3.80;;;;;;;-4.55;79.87;98240.19;7340470;19;20015;-70
2023/03/08 06:25:57;;;;;;;20.42;9.55;;;;;;;-4.74;80.04;98239.94;7342922;19;20025;-69
2023/03/08 06:28:24;;;;;;;17.05;9.57;;;;;;;-4.68;80.40;98228.50;7340415;19;20029;-68
2023/03/08 06:30:50;;;;;;;11.68;5.13;;;;;;;-4.30;79.54;98230.66;7342408;19;20322;-68
2023/03/08 06:33:20;;;;;;;14.10;9.00;;;;;;;-4.33;79.04;98219.50;7341573;19;20015;-70
2023/03/08 06:36:06;;;;;;;15.68;7.25;;;;;;;-4.24;79.00;98200.97;7345825;19;20024;-70
2023/03/08 06:38:32;;;;;;;10.55;6.00;;;;;;;-4.24;79.04;98204.41;7343746;19;20042;-71
2023/03/08 06:40:57;;;;;;;11.48;5.88;;;;;;;-3.93;78.08;98191.13;7343551;19;20102;-69
2023/03/08 06:43:23;;;;;;;7.90;4.13;;;;;;;-3.99;77.58;98178.38;7341865;19;20014;-70
2023/03/08 06:45:48;;;;;;;13.43;6.93;;;;;;;-4.04;77.50;98177.66;7343542;19;20017;-71
2023/03/08 06:48:13;;;;;;;13.32;6.28;;;;;;;-3.97;77.61;98170.50;7340913;19;20021;-71
2023/03/08 06:50:38;;;;;;;11.93;7.20;;;;;;;-3.87;77.58;98167.50;7345020;19;20017;-70
2023/03/08 06:53:03;;;;;;;11.32;6.55;;;;;;;-3.66;77.41;98168.44;7340495;19;20031;-70
2023/03/08 06:55:41;;;;;;;12.70;7.68;;;;;;;-3.41;77.32;98153.56;7337568;19;20018;-71
2023/03/08 06:58:07;;;;;;;10.23;5.90;;;;;;;-3.09;76.95;98157.50;7341387;19;20025;-69
2023/03/08 07:00:32;;;;;;;11.48;6.70;;;;;;;-3.18;76.05;98152.66;7341290;19;20117;-71
2023/03/08 07:02:57;;;;;;;10.68;6.38;;;;;;;-3.23;76.16;98153.72;7346961;19;20041;-69
2023/03/08 07:05:22;;;;;;;11.35;5.57;;;;;;;-3.16;76.42;98150.00;7350336;19;20066;-69
2023/03/08 07:07:47;;;;;;;18.45;7.70;;;;;;;-3.00;76.28;98140.63;7346960;19;20055;-69
2023/03/08 07:10:14;;;;;;;12.35;6.53;;;;;;;-2.72;75.19;98135.97;7350131;19;20023;-68
2023/03/08 07:12:42;;;;;;;13.15;6.63;;;;;;;-2.84;74.45;98128.66;7346776;19;20011;-71
2023/03/08 07:15:07;;;;;;;9.55;6.43;;;;;;;-2.98;74.87;98128.38;7346789;19;20011;-70
2023/03/08 07:17:33;;;;;;;11.15;7.82;;;;;;;-2.86;74.33;98116.59;7347333;19;20033;-70
2023/03/08 07:19:58;;;;;;;7.95;4.60;;;;;;;-2.77;74.74;98116.19;7346326;19;20089;-71
2023/03/08 07:22:22;;;;;;;9.82;5.47;;;;;;;-2.68;74.51;98115.81;7346959;19;20024;-71
2023/03/08 07:24:47;;;;;;;13.73;7.53;;;;;;;-2.44;74.92;98119.13;7348511;19;20350;-70
2023/03/08 07:27:12;;;;;;;14.35;5.97;;;;;;;-2.08;73.97;98116.66;7347389;19;20019;-71
2023/03/08 07:29:37;;;;;;;9.07;5.32;;;;;;;-1.95;73.67;98116.03;7350180;19;20011;-69
2023/03/08 07:32:02;;;;;;;13.25;7.00;;;;;;;-1.92;72.86;98121.09;7348118;19;20042;-70
2023/03/08 07:34:26;;;;;;;7.95;4.72;;;;;;;-1.71;72.70;98123.66;7346267;19;20013;-70
2023/03/08 07:36:51;;;;;;;8.30;5.05;;;;;;;-1.85;71.31;98135.56;7346459;19;20077;-72
2023/03/08 07:39:16;;;;;;;6.50;4.50;;;;;;;-1.87;70.58;98111.28;7348734;19;20022;-72
2023/03/08 07:41:41;;;;;;;8.65;6.07;;;;;;;-2.16;71.19;98114.38;7346205;19;20097;-71
2023/03/08 07:44:05;;;;;;;10.73;6.38;;;;;;;-2.30;71.85;98128.03;7348428;19;20372;-71
2023/03/08 07:46:30;;;;;;;8.98;5.90;;;;;;;-2.21;72.14;98118.94;7348553;19;20003;-74
2023/03/08 07:48:55;;;;;;;4.38;2.15;;;;;;;-1.90;71.44;98119.25;7354953;19;20025;-73
2023/03/08 07:51:20;;;;;;;8.63;5.63;;;;;;;-2.11;71.53;98125.44;7359560;19;20074;-73
2023/03/08 07:53:45;;;;;;;10.80;5.93;;;;;;;-2.25;71.98;98126.06;7354164;19;20015;-74
2023/03/08 07:56:10;;;;;;;8.48;5.10;;;;;;;-1.99;71.53;98124.91;7351640;19;20007;-73
2023/03/08 07:58:35;;;;;;;10.15;6.32;;;;;;;-2.05;71.89;98117.38;7350046;19;20022;-74
2023/03/08 08:00:59;;;;;;;6.55;4.90;;;;;;;-1.67;71.96;98101.66;7350726;19;20029;-72
2023/03/08 08:03:24;;;;;;;8.63;5.28;;;;;;;-1.64;70.14;98109.38;7350828;19;20010;-72
2023/03/08 08:05:50;;;;;;;11.48;7.60;;;;;;;-2.06;69.39;98102.63;7349840;19;20035;-72
2023/03/08 08:08:15;;;;;;;8.88;5.75;;;;;;;-2.26;70.76;98087.81;7351048;19;20022;-73
2023/03/08 08:10:40;;;;;;;5.60;3.60;;;;;;;-1.88;71.28;98091.31;7350589;19;20014;-72
2023/03/08 08:13:05;;;;;;;11.45;6.93;;;;;;;-1.80;70.79;98083.09;7349308;19;20028;-75
2023/03/08 08:15:31;;;;;;;8.65;5.45;;;;;;;-1.31;71.23;98078.16;7348503;19;20042;-73
2023/03/08 08:17:56;;;;;;;10.30;5.53;;;;;;;-0.79;69.64;98074.63;7350839;19;20029;-74
2023/03/08 08:20:21;;;;;;;11.38;7.43;;;;;;;-0.59;68.13;98073.63;7349944;19;20014;-74
2023/03/08 08:22:46;;;;;;;4.35;3.30;;;;;;;-0.34;68.65;98072.38;7349921;19;20013;-73
2023/03/08 08:25:11;;;;;;;8.77;5.90;;;;;;;-0.63;67.69;98086.94;7347516;19;20074;-73
2023/03/08 08:27:37;;;;;;;10.48;7.30;;;;;;;-0.86;67.07;98090.72;7349113;19;20456;-73
2023/03/08 08:30:04;;;;;;;8.70;5.15;;;;;;;-0.68;67.85;98079.34;7344461;19;20458;-73
2023/03/08 08:32:29;;;;;;;10.00;6.28;;;;;;;-0.90;67.99;98084.81;7348096;19;20031;-72
2023/03/08 08:34:54;;;;;;;12.68;7.63;;;;;;;-1.26;68.23;98071.81;7345722;19;20014;-75
2023/03/08 08:37:18;;;;;;;8.55;6.35;;;;;;;-1.12;68.25;98069.34;7346445;19;20035;-72
2023/03/08 08:39:43;;;;;;;14.77;8.88;;;;;;;-1.42;68.01;98081.31;7343423;19;20146;-72
2023/03/08 08:42:08;;;;;;;13.20;8.45;;;;;;;-1.43;67.70;98079.59;7346725;19;20469;-73
2023/03/08 08:44:33;;;;;;;10.25;5.75;;;;;;;-1.11;67.78;98083.25;7343331;19;20470;-70
2023/03/08 08:46:57;;;;;;;15.85;9.55;;;;;;;-1.43;67.96;98074.38;7344787;19;20022;-72
2023/03/08 08:49:22;;;;;;;9.90;6.47;;;;;;;-1.27;68.41;98066.66;7343509;19;20031;-71
2023/03/08 08:51:46;;;;;;;12.48;8.48;;;;;;;-1.11;68.06;98065.78;7345336;19;20011;-73
2023/03/08 08:54:11;;;;;;;12.63;6.82;;;;;;;-0.95;67.88;98055.44;7343262;19;20014;-73
2023/03/08 08:56:41;;;;;;;13.00;6.43;;;;;;;-0.78;67.08;98046.72;7342044;19;20017;-72
2023/03/08 08:59:06;;;;;;;10.30;6.75;;;;;;;-0.86;67.00;98047.09;7345982;19;20011;-74
2023/03/08 09:01:33;;;;;;;12.50;8.15;;;;;;;-1.13;66.92;98040.69;7347513;19;20080;-73
2023/03/08 09:03:58;;;;;;;12.23;6.13;;;;;;;-0.67;66.30;98039.16;7349654;19;20007;-74
2023/03/08 09:06:24;;;;;;;9.88;5.35;;;;;;;-0.83;66.08;98043.50;7349972;19;20027;-74
2023/03/08 09:08:50;;;;;;;11.88;6.95;;;;;;;-1.54;67.68;98048.75;7348146;19;20011;-74
2023/03/08 09:11:15;;;;;;;6.72;4.43;;;;;;;-1.20;67.43;98045.34;7350955;19;20020;-73
2023/03/08 09:13:41;;;;;;;8.70;5.28;;;;;;;-1.06;66.77;98026.34;7349047;19;20006;-73
2023/03/08 09:16:06;;;;;;;5.90;4.00;;;;;;;-0.67;66.20;98020.84;7347879;19;20508;-74
2023/03/08 09:18:31;;;;;;;9.75;4.65;;;;;;;-0.56;66.41;98021.13;7348361;19;20034;-76
2023/03/08 09:20:56;;;;;;;18.60;7.32;;;;;;;-0.68;66.42;98010.47;7349644;19;20011;-74
2023/03/08 09:23:20;;;;;;;7.80;5.07;;;;;;;-0.23;66.06;98008.03;7349355;19;20022;-73
2023/03/08 09:25:54;;;;;;;11.90;5.03;;;;;;;-0.04;65.28;98003.47;7349653;19;20011;-75
2023/03/08 09:28:18;;;;;;;5.97;4.88;;;;;;;0.09;64.02;98008.03;7348956;19;20467;-74
2023/03/08 09:30:43;;;;;;;12.48;6.15;;;;;;;-0.10;64.41;97988.06;7349068;19;20465;-74
2023/03/08 09:33:08;;;;;;;12.10;6.47;;;;;;;0.13;64.50;97985.94;7345492;19;20066;-74
2023/03/08 09:35:33;;;;;;;9.80;5.35;;;;;;;0.29;63.70;97982.41;7344337;19;20015;-76
2023/03/08 09:37:58;;;;;;;10.10;6.57;;;;;;;0.38;63.46;97977.56;7343801;19;20014;-75
2023/03/08 09:40:26;;;;;;;8.27;4.30;;;;;;;0.73;63.29;97964.09;7346927;19;20031;-76
2023/03/08 09:42:51;;;;;;;8.30;5.90;;;;;;;0.70;63.16;97971.31;7342947;19;20014;-75
2023/03/08 09:45:24;;;;;;;8.40;5.90;;;;;;;1.07;63.36;97965.56;7344296;19;20041;-75
2023/03/08 09:48:03;;;;;;;7.03;4.80;;;;;;;1.63;62.67;97963.91;7347869;19;20041;-75
2023/03/08 09:50:44;;;;;;;9.63;6.15;;;;;;;1.65;61.85;97948.88;7345134;19;20015;-75
2023/03/08 09:53:13;;;;;;;10.43;5.90;;;;;;;1.69;61.35;97955.63;7345128;19;20059;-74
2023/03/08 09:55:44;;;;;;;11.48;7.47;;;;;;;1.83;60.52;97939.84;7347784;19;20017;-76
2023/03/08 09:58:27;;;;;;;9.63;4.70;;;;;;;1.90;59.89;97935.06;7345043;19;20433;-76
2023/03/08 10:00:53;;;;;;;14.30;7.80;;;;;;;1.49;59.26;97929.75;7343427;19;20014;-76
2023/03/08 10:03:36;;;;;;;6.60;3.95;;;;;;;1.73;59.47;97917.72;7346982;19;20023;-76
2023/03/08 10:06:18;;;;;;;11.30;6.88;;;;;;;1.64;59.59;97905.19;7344558;19;20017;-75
2023/03/08 10:08:46;;;;;;;13.57;6.75;;;;;;;1.77;59.78;97900.84;7344452;19;20015;-74
2023/03/08 10:11:23;;;;;;;11.73;7.18;;;;;;;1.80;59.74;97900.66;7343758;19;20019;-75
2023/03/08 10:13:52;;;;;;;11.80;7.25;;;;;;;1.71;59.39;97895.09;7342465;19;20029;-76
2023/03/08 10:16:24;;;;;;;9.95;6.43;;;;;;;1.37;59.65;97896.38;7344043;19;20046;-75
2023/03/08 10:18:51;;;;;;;15.25;7.20;;;;;;;0.96;60.03;97891.91;7342350;19;20027;-74
2023/03/08 10:21:19;;;;;;;11.20;6.50;;;;;;;0.64;61.41;97904.34;7343190;19;20465;-77
2023/03/08 10:23:47;;;;;;;14.90;7.63;;;;;;;0.61;61.31;97883.53;7343434;19;20110;-76
2023/03/08 10:26:14;;;;;;;12.32;7.82;;;;;;;0.40;61.74;97865.59;7343405;19;20473;-76
2023/03/08 10:28:40;;;;;;;17.63;8.85;;;;;;;0.33;62.49;97884.34;7342289;19;20049;-76
2023/03/08 10:31:18;;;;;;;17.45;9.68;;;;;;;0.55;62.93;97876.03;7344423;19;20019;-76
2023/03/08 10:33:44;;;;;;;12.50;7.13;;;;;;;0.78;62.27;97884.31;7342069;19;20014;-76
2023/03/08 10:36:24;;;;;;;15.00;8.45;;;;;;;0.66;62.13;97868.38;7343461;19;20022;-75
2023/03/08 10:39:06;;;;;;;16.58;9.18;;;;;;;0.64;62.25;97879.91;7348832;19;20464;-74
2023/03/08 10:41:35;;;;;;;18.15;9.40;;;;;;;0.57;61.69;97852.34;7347766;19;20018;-74
2023/03/08 10:44:00;;;;;;;16.35;8.50;;;;;;;0.51;61.73;97853.56;7350982;19;20018;-74
2023/03/08 10:46:29;;;;;;;14.45;7.88;;;;;;;0.65;61.19;97855.34;7347870;19;20030;-74
2023/03/08 10:48:53;;;;;;;17.23;9.52;;;;;;;0.38;61.26;97843.88;7350020;19;20067;-73
2023/03/08 10:51:20;;;;;;;13.77;7.90;;;;;;;0.57;61.30;97849.72;7349722;19;20104;-75
2023/03/08 10:53:56;;;;;;;19.52;10.40;;;;;;;0.23;61.94;97850.84;7351247;19;20022;-74
2023/03/08 10:56:45;;;;;;;14.65;7.63;;;;;;;0.40;61.61;97835.00;7347972;19;20040;-74
2023/03/08 10:59:36;;;;;;;12.80;7.70;;;;;;;0.11;61.90;97843.75;7349403;19;20357;-76
2023/03/08 11:02:22;;;;;;;12.05;7.40;;;;;;;0.29;62.32;97819.91;7351831;19;20354;-74
2023/03/08 11:04:56;;;;;;;14.82;8.02;;;;;;;0.26;62.31;97821.88;7348894;19;20375;-72
2023/03/08 11:07:30;;;;;;;10.20;6.82;;;;;;;0.22;62.21;97809.91;7349673;19;20011;-74
2023/03/08 11:10:18;;;;;;;16.10;6.15;;;;;;;0.16;62.34;97807.63;7347999;19;20023;-73
2023/03/08 11:12:43;;;;;;;16.85;7.43;;;;;;;-0.04;62.31;97791.31;7348677;19;20025;-73
2023/03/08 11:15:29;;;;;;;18.80;11.68;;;;;;;-0.24;63.37;97801.25;7347356;19;20086;-73
2023/03/08 11:17:57;;;;;;;19.02;11.07;;;;;;;-0.30;64.18;97801.59;7347319;19;20020;-72
2023/03/08 11:20:25;;;;;;;12.23;7.20;;;;;;;0.11;63.18;97789.56;7346747;19;20018;-74
2023/03/08 11:22:50;;;;;;;25.77;11.38;;;;;;;-0.04;63.13;97806.16;7349998;19;20011;-74
2023/03/08 11:25:22;;;;;;;17.55;9.60;;;;;;;-0.02;62.92;97786.81;7348950;19;20022;-74